PUB weather

Pueblo Memorial Airport
Pueblo, Colorado, United States

Public forecast

Using degrees Fahrenheit for public forecast. Weather courtesy of forecast.io.

METAR (pilot weather report)

Retrieved 2019/06/16 15:53 UTC (59 minutes ago):

KPUB 161553Z 12003KT 10SM CLR 20/10 A3005 RMK AO2 SLP131 T02000100

TAF (pilot weather forecast)

Retrieved 2019/06/16 12:27 UTC (4 hours ago):

TAF KPUB 161125Z 1612/1712 VRB05KT P6SM FEW150 BKN200 FM161700 14010KT P6SM SCT070 BKN140 FM170100 VRB06KT P6SM VCTS SCT050CB BKN070 FM170600 VRB06KT P6SM SCT070 BKN200